Humidity-temperature Sensor

Selected Measurement Type: Air Temperature

 
Air Temperature [°C]     6 entries per hour
Showing data from 6/12/2017 (14:20:00 Z) to 6/11/2017 (00:01:00 Z)
Previous Next [ Day | 3-Days | 7-Days ]
First Last
Prev [ Day | 3-Days | 7-Days ] Next
First Last

Start Time:     :
End Time:     :     
Time (in GMT) :00 :50 :40 :30 :20 :10
Previous Next [ Day | 3-Days | 7-Days ]
First Last
Prev [ Day | 3-Days | 7-Days ] Next
First Last


123 => good data
MM => data is determined as missing
-- => data not received/configured
Back to Top Back to Top
6/12/2017 15:00 to 14:10 -- -- -- -- 26.26 26.29
6/12/2017 14:00 to 13:10 26.37 26.24 26.31 26.15 26.12 25.97
6/12/2017 13:00 to 12:10 25.95 26.06 26.12 26.12 26.05 26.11
6/12/2017 12:00 to 11:10 26.11 26.09 26.10 26.06 26.18 26.13
6/12/2017 11:00 to 10:10 26.21 26.09 26.18 26.14 26.18 26.30
6/12/2017 10:00 to 9:10 26.17 26.20 26.17 26.32 26.31 26.30
6/12/2017 09:00 to 8:10 26.28 26.32 26.28 26.29 26.21 26.27
6/12/2017 08:00 to 7:10 26.30 26.39 26.34 26.28 26.41 26.33
6/12/2017 07:00 to 6:10 26.37 26.28 26.19 26.53 26.38 26.41
6/12/2017 06:00 to 5:10 26.48 26.46 26.50 26.52 26.53 26.48
6/12/2017 05:00 to 4:10 26.45 26.42 26.52 26.53 26.52 26.44
6/12/2017 04:00 to 3:10 26.49 26.55 26.40 26.52 26.60 26.58
6/12/2017 03:00 to 2:10 26.54 26.44 26.58 26.48 26.52 26.52
6/12/2017 02:00 to 1:10 26.53 26.43 26.47 26.47 26.56 26.60
6/12/2017 01:00 to 0:10 -- -- -- -- -- --
6/12/2017 00:00 to 23:10 26.72 26.79 26.73 26.68 26.71 26.83
6/11/2017 23:00 to 22:10 26.75 26.81 26.80 26.71 26.76 26.92
6/11/2017 22:00 to 21:10 26.74 26.75 26.77 26.76 26.66 26.78
6/11/2017 21:00 to 20:10 26.80 26.69 26.71 26.71 26.78 26.79
6/11/2017 20:00 to 19:10 26.81 26.69 26.72 26.72 26.68 26.72
6/11/2017 19:00 to 18:10 26.66 26.70 26.66 26.68 26.76 26.62
6/11/2017 18:00 to 17:10 26.67 26.74 26.82 26.87 26.66 26.73
6/11/2017 17:00 to 16:10 26.75 26.81 26.77 26.70 26.70 26.74
6/11/2017 16:00 to 15:10 26.70 26.74 26.78 26.78 26.79 26.87
6/11/2017 15:00 to 14:10 26.83 26.87 26.68 26.71 26.68 26.73
6/11/2017 14:00 to 13:10 26.61 26.53 26.58 26.48 26.44 26.54
6/11/2017 13:00 to 12:10 26.56 26.53 26.43 26.49 26.41 26.43
6/11/2017 12:00 to 11:10 26.47 26.57 26.47 26.59 26.50 25.82
6/11/2017 11:00 to 10:10 26.14 26.55 26.49 26.59 26.59 26.68
6/11/2017 10:00 to 9:10 26.49 26.58 26.56 26.61 26.59 26.63
6/11/2017 09:00 to 8:10 26.63 26.72 26.76 26.74 26.66 26.67
6/11/2017 08:00 to 7:10 26.68 26.58 26.72 26.70 26.69 26.82
6/11/2017 07:00 to 6:10 26.75 26.72 26.66 26.78 26.84 26.82
6/11/2017 06:00 to 5:10 26.74 26.69 26.76 26.72 26.78 26.75
6/11/2017 05:00 to 4:10 26.69 26.79 26.65 26.71 26.77 26.74
6/11/2017 04:00 to 3:10 26.71 26.67 26.78 26.78 26.81 26.72
6/11/2017 03:00 to 2:10 26.82 26.80 26.69 26.75 26.65 26.67
6/11/2017 02:00 to 1:10 26.74 26.68 26.71 26.83 26.78 26.79
6/11/2017 01:00 to 0:10 26.73 26.74 26.70 26.71 26.73 26.60